sensor_id;sensor_type;location;lat;lon;timestamp;P1;durP1;ratioP1;P2;durP2;ratioP2
16354;SDS011;8287;51.644;8.494;2022-12-07T00:01:44;147.25;;;139.38;;
16354;SDS011;8287;51.644;8.494;2022-12-07T00:04:13;150.88;;;142.93;;
16354;SDS011;8287;51.644;8.494;2022-12-07T00:06:41;141.95;;;134.18;;
16354;SDS011;8287;51.644;8.494;2022-12-07T00:09:10;140.18;;;132.68;;
16354;SDS011;8287;51.644;8.494;2022-12-07T00:11:40;147.43;;;139.13;;
16354;SDS011;8287;51.644;8.494;2022-12-07T00:14:09;194.38;;;183.65;;
16354;SDS011;8287;51.644;8.494;2022-12-07T00:16:38;141.38;;;133.68;;
16354;SDS011;8287;51.644;8.494;2022-12-07T00:19:05;138.77;;;131.13;;
16354;SDS011;8287;51.644;8.494;2022-12-07T00:21:32;136.15;;;128.52;;
16354;SDS011;8287;51.644;8.494;2022-12-07T00:24:00;145.27;;;136.23;;
16354;SDS011;8287;51.644;8.494;2022-12-07T00:26:28;135.02;;;127.88;;
16354;SDS011;8287;51.644;8.494;2022-12-07T00:28:58;138.52;;;130.50;;
16354;SDS011;8287;51.644;8.494;2022-12-07T00:31:27;134.82;;;128.02;;
16354;SDS011;8287;51.644;8.494;2022-12-07T00:33:56;130.75;;;122.88;;
16354;SDS011;8287;51.644;8.494;2022-12-07T00:36:24;138.13;;;130.23;;
16354;SDS011;8287;51.644;8.494;2022-12-07T00:38:51;126.97;;;119.57;;
16354;SDS011;8287;51.644;8.494;2022-12-07T00:41:18;141.85;;;134.02;;
16354;SDS011;8287;51.644;8.494;2022-12-07T00:43:46;154.95;;;145.63;;
16354;SDS011;8287;51.644;8.494;2022-12-07T00:46:15;135.10;;;126.78;;
16354;SDS011;8287;51.644;8.494;2022-12-07T00:48:42;130.95;;;123.57;;
16354;SDS011;8287;51.644;8.494;2022-12-07T00:51:09;137.13;;;129.07;;
16354;SDS011;8287;51.644;8.494;2022-12-07T00:53:37;130.70;;;123.45;;
16354;SDS011;8287;51.644;8.494;2022-12-07T00:56:05;155.73;;;147.20;;
16354;SDS011;8287;51.644;8.494;2022-12-07T00:58:32;140.15;;;132.48;;
16354;SDS011;8287;51.644;8.494;2022-12-07T01:00:59;131.02;;;124.10;;
16354;SDS011;8287;51.644;8.494;2022-12-07T01:03:28;150.40;;;142.13;;
16354;SDS011;8287;51.644;8.494;2022-12-07T01:05:55;138.65;;;131.02;;
16354;SDS011;8287;51.644;8.494;2022-12-07T01:08:22;141.00;;;133.40;;
16354;SDS011;8287;51.644;8.494;2022-12-07T01:10:56;130.38;;;123.55;;
16354;SDS011;8287;51.644;8.494;2022-12-07T01:13:24;140.25;;;132.15;;
16354;SDS011;8287;51.644;8.494;2022-12-07T01:15:50;130.77;;;123.85;;
16354;SDS011;8287;51.644;8.494;2022-12-07T01:18:17;140.23;;;133.45;;
16354;SDS011;8287;51.644;8.494;2022-12-07T01:20:45;120.68;;;114.22;;
16354;SDS011;8287;51.644;8.494;2022-12-07T01:23:23;134.77;;;127.78;;
16354;SDS011;8287;51.644;8.494;2022-12-07T01:25:53;157.50;;;149.43;;
16354;SDS011;8287;51.644;8.494;2022-12-07T01:28:20;150.98;;;143.27;;
16354;SDS011;8287;51.644;8.494;2022-12-07T01:30:54;128.50;;;121.60;;
16354;SDS011;8287;51.644;8.494;2022-12-07T01:33:21;134.30;;;127.18;;
16354;SDS011;8287;51.644;8.494;2022-12-07T01:35:49;135.77;;;129.02;;
16354;SDS011;8287;51.644;8.494;2022-12-07T01:38:15;137.82;;;130.55;;
16354;SDS011;8287;51.644;8.494;2022-12-07T01:40:42;138.23;;;130.40;;
16354;SDS011;8287;51.644;8.494;2022-12-07T01:43:11;126.63;;;120.07;;
16354;SDS011;8287;51.644;8.494;2022-12-07T01:45:42;132.20;;;125.22;;
16354;SDS011;8287;51.644;8.494;2022-12-07T01:48:09;129.52;;;122.90;;
16354;SDS011;8287;51.644;8.494;2022-12-07T01:50:38;115.97;;;109.82;;
16354;SDS011;8287;51.644;8.494;2022-12-07T01:53:08;132.10;;;125.32;;
16354;SDS011;8287;51.644;8.494;2022-12-07T01:55:37;122.00;;;115.78;;
16354;SDS011;8287;51.644;8.494;2022-12-07T01:58:06;122.78;;;116.50;;
16354;SDS011;8287;51.644;8.494;2022-12-07T02:00:33;128.13;;;121.45;;
16354;SDS011;8287;51.644;8.494;2022-12-07T02:03:00;119.03;;;112.82;;
16354;SDS011;8287;51.644;8.494;2022-12-07T02:05:31;130.52;;;124.00;;
16354;SDS011;8287;51.644;8.494;2022-12-07T02:07:59;151.20;;;143.60;;
16354;SDS011;8287;51.644;8.494;2022-12-07T02:10:29;133.75;;;126.85;;
16354;SDS011;8287;51.644;8.494;2022-12-07T02:12:58;119.95;;;113.80;;
16354;SDS011;8287;51.644;8.494;2022-12-07T02:15:28;124.43;;;117.97;;
16354;SDS011;8287;51.644;8.494;2022-12-07T02:18:04;149.25;;;142.18;;
16354;SDS011;8287;51.644;8.494;2022-12-07T02:20:36;118.00;;;111.93;;
16354;SDS011;8287;51.644;8.494;2022-12-07T02:29:32;133.98;;;127.38;;
16354;SDS011;8287;51.644;8.494;2022-12-07T02:32:03;146.73;;;139.40;;
16354;SDS011;8287;51.644;8.494;2022-12-07T02:34:37;121.05;;;115.15;;
16354;SDS011;8287;51.644;8.494;2022-12-07T02:37:12;153.43;;;146.13;;
16354;SDS011;8287;51.644;8.494;2022-12-07T02:39:46;128.75;;;122.15;;
16354;SDS011;8287;51.644;8.494;2022-12-07T02:42:17;122.38;;;115.72;;
16354;SDS011;8287;51.644;8.494;2022-12-07T02:44:48;119.10;;;113.18;;
16354;SDS011;8287;51.644;8.494;2022-12-07T02:47:17;132.25;;;125.80;;
16354;SDS011;8287;51.644;8.494;2022-12-07T02:49:47;120.68;;;114.32;;
16354;SDS011;8287;51.644;8.494;2022-12-07T02:52:15;119.65;;;112.82;;
16354;SDS011;8287;51.644;8.494;2022-12-07T02:54:42;137.38;;;130.80;;
16354;SDS011;8287;51.644;8.494;2022-12-07T02:57:22;148.50;;;141.27;;
16354;SDS011;8287;51.644;8.494;2022-12-07T03:00:05;128.70;;;122.45;;
16354;SDS011;8287;51.644;8.494;2022-12-07T03:02:36;125.05;;;118.95;;
16354;SDS011;8287;51.644;8.494;2022-12-07T03:05:25;130.65;;;124.03;;
16354;SDS011;8287;51.644;8.494;2022-12-07T03:08:18;133.77;;;127.38;;
16354;SDS011;8287;51.644;8.494;2022-12-07T03:10:54;149.32;;;142.13;;
16354;SDS011;8287;51.644;8.494;2022-12-07T03:13:25;132.07;;;125.95;;
16354;SDS011;8287;51.644;8.494;2022-12-07T03:16:00;115.50;;;109.68;;
16354;SDS011;8287;51.644;8.494;2022-12-07T03:18:32;175.13;;;166.90;;
16354;SDS011;8287;51.644;8.494;2022-12-07T03:21:04;121.68;;;115.45;;
16354;SDS011;8287;51.644;8.494;2022-12-07T03:23:34;142.85;;;136.27;;
16354;SDS011;8287;51.644;8.494;2022-12-07T03:26:05;136.80;;;130.55;;
16354;SDS011;8287;51.644;8.494;2022-12-07T03:28:36;142.02;;;135.35;;
16354;SDS011;8287;51.644;8.494;2022-12-07T03:31:10;161.65;;;154.00;;
16354;SDS011;8287;51.644;8.494;2022-12-07T03:33:43;141.15;;;134.25;;
16354;SDS011;8287;51.644;8.494;2022-12-07T03:36:17;135.82;;;129.38;;
16354;SDS011;8287;51.644;8.494;2022-12-07T03:41:16;133.48;;;127.30;;
16354;SDS011;8287;51.644;8.494;2022-12-07T03:43:48;144.35;;;137.27;;
16354;SDS011;8287;51.644;8.494;2022-12-07T03:46:19;131.25;;;124.93;;
16354;SDS011;8287;51.644;8.494;2022-12-07T03:48:53;125.63;;;119.97;;
16354;SDS011;8287;51.644;8.494;2022-12-07T03:51:26;138.13;;;131.05;;
16354;SDS011;8287;51.644;8.494;2022-12-07T03:54:00;119.65;;;114.00;;
16354;SDS011;8287;51.644;8.494;2022-12-07T03:56:33;137.88;;;131.20;;
16354;SDS011;8287;51.644;8.494;2022-12-07T03:59:00;146.60;;;139.75;;
16354;SDS011;8287;51.644;8.494;2022-12-07T04:01:28;119.25;;;113.57;;
16354;SDS011;8287;51.644;8.494;2022-12-07T04:03:55;131.27;;;124.95;;
16354;SDS011;8287;51.644;8.494;2022-12-07T04:06:22;162.10;;;154.75;;
16354;SDS011;8287;51.644;8.494;2022-12-07T04:08:48;124.07;;;118.30;;
16354;SDS011;8287;51.644;8.494;2022-12-07T04:11:15;139.63;;;132.93;;
16354;SDS011;8287;51.644;8.494;2022-12-07T04:13:42;140.82;;;134.13;;
16354;SDS011;8287;51.644;8.494;2022-12-07T04:16:26;152.93;;;145.98;;
16354;SDS011;8287;51.644;8.494;2022-12-07T04:18:54;133.18;;;126.57;;
16354;SDS011;8287;51.644;8.494;2022-12-07T04:21:20;132.20;;;125.97;;
16354;SDS011;8287;51.644;8.494;2022-12-07T04:23:47;157.45;;;150.10;;
16354;SDS011;8287;51.644;8.494;2022-12-07T04:26:13;140.10;;;133.55;;
16354;SDS011;8287;51.644;8.494;2022-12-07T04:28:40;116.28;;;110.60;;
16354;SDS011;8287;51.644;8.494;2022-12-07T04:31:06;122.43;;;116.47;;
16354;SDS011;8287;51.644;8.494;2022-12-07T04:33:33;127.70;;;121.90;;
16354;SDS011;8287;51.644;8.494;2022-12-07T04:36:03;146.93;;;140.30;;
16354;SDS011;8287;51.644;8.494;2022-12-07T04:38:30;125.40;;;119.13;;
16354;SDS011;8287;51.644;8.494;2022-12-07T04:40:57;117.57;;;111.78;;
16354;SDS011;8287;51.644;8.494;2022-12-07T04:43:23;203.23;;;194.45;;
16354;SDS011;8287;51.644;8.494;2022-12-07T04:45:50;123.88;;;117.50;;
16354;SDS011;8287;51.644;8.494;2022-12-07T04:48:17;125.97;;;119.78;;
16354;SDS011;8287;51.644;8.494;2022-12-07T04:50:43;142.82;;;136.45;;
16354;SDS011;8287;51.644;8.494;2022-12-07T04:53:11;126.90;;;121.03;;
16354;SDS011;8287;51.644;8.494;2022-12-07T04:55:38;123.50;;;117.63;;
16354;SDS011;8287;51.644;8.494;2022-12-07T04:58:05;146.27;;;138.57;;
16354;SDS011;8287;51.644;8.494;2022-12-07T05:00:31;131.80;;;125.38;;
16354;SDS011;8287;51.644;8.494;2022-12-07T05:02:58;160.13;;;152.40;;
16354;SDS011;8287;51.644;8.494;2022-12-07T05:05:25;156.57;;;149.55;;
16354;SDS011;8287;51.644;8.494;2022-12-07T05:07:51;147.80;;;140.70;;
16354;SDS011;8287;51.644;8.494;2022-12-07T05:10:19;123.68;;;117.13;;
16354;SDS011;8287;51.644;8.494;2022-12-07T05:12:46;149.98;;;142.82;;
16354;SDS011;8287;51.644;8.494;2022-12-07T05:15:13;155.55;;;148.20;;
16354;SDS011;8287;51.644;8.494;2022-12-07T05:17:40;132.25;;;125.85;;
16354;SDS011;8287;51.644;8.494;2022-12-07T05:20:07;135.35;;;128.48;;
16354;SDS011;8287;51.644;8.494;2022-12-07T05:22:35;136.82;;;130.13;;
16354;SDS011;8287;51.644;8.494;2022-12-07T05:25:01;146.15;;;138.85;;
16354;SDS011;8287;51.644;8.494;2022-12-07T05:27:30;142.05;;;135.45;;
16354;SDS011;8287;51.644;8.494;2022-12-07T05:29:56;131.98;;;125.70;;
16354;SDS011;8287;51.644;8.494;2022-12-07T05:32:23;139.50;;;132.88;;
16354;SDS011;8287;51.644;8.494;2022-12-07T05:34:49;139.35;;;132.82;;
16354;SDS011;8287;51.644;8.494;2022-12-07T05:37:16;134.13;;;127.53;;
16354;SDS011;8287;51.644;8.494;2022-12-07T05:39:43;159.20;;;151.48;;
16354;SDS011;8287;51.644;8.494;2022-12-07T05:42:10;133.57;;;127.10;;
16354;SDS011;8287;51.644;8.494;2022-12-07T05:44:42;152.50;;;145.25;;
16354;SDS011;8287;51.644;8.494;2022-12-07T05:47:10;125.35;;;119.50;;
16354;SDS011;8287;51.644;8.494;2022-12-07T05:49:36;141.07;;;134.23;;
16354;SDS011;8287;51.644;8.494;2022-12-07T05:52:04;127.82;;;121.05;;
16354;SDS011;8287;51.644;8.494;2022-12-07T05:54:30;146.13;;;138.98;;
16354;SDS011;8287;51.644;8.494;2022-12-07T05:56:57;153.00;;;145.70;;
16354;SDS011;8287;51.644;8.494;2022-12-07T05:59:24;116.68;;;110.72;;
16354;SDS011;8287;51.644;8.494;2022-12-07T06:01:51;138.50;;;131.65;;
16354;SDS011;8287;51.644;8.494;2022-12-07T06:04:20;170.50;;;162.75;;
16354;SDS011;8287;51.644;8.494;2022-12-07T06:06:47;146.55;;;139.43;;
16354;SDS011;8287;51.644;8.494;2022-12-07T06:09:15;153.98;;;146.07;;
16354;SDS011;8287;51.644;8.494;2022-12-07T06:11:43;146.43;;;139.27;;
16354;SDS011;8287;51.644;8.494;2022-12-07T06:14:27;161.10;;;152.82;;
16354;SDS011;8287;51.644;8.494;2022-12-07T06:16:55;145.10;;;137.90;;
16354;SDS011;8287;51.644;8.494;2022-12-07T06:19:22;125.75;;;119.30;;
16354;SDS011;8287;51.644;8.494;2022-12-07T06:21:49;119.97;;;113.68;;
16354;SDS011;8287;51.644;8.494;2022-12-07T06:24:16;133.13;;;126.35;;
16354;SDS011;8287;51.644;8.494;2022-12-07T06:26:44;141.20;;;133.70;;
16354;SDS011;8287;51.644;8.494;2022-12-07T06:29:11;121.22;;;114.75;;
16354;SDS011;8287;51.644;8.494;2022-12-07T06:31:38;122.10;;;115.57;;
16354;SDS011;8287;51.644;8.494;2022-12-07T06:34:09;153.40;;;145.82;;
16354;SDS011;8287;51.644;8.494;2022-12-07T06:36:37;133.38;;;126.38;;
16354;SDS011;8287;51.644;8.494;2022-12-07T06:39:04;112.43;;;106.43;;
16354;SDS011;8287;51.644;8.494;2022-12-07T06:41:32;123.32;;;116.82;;
16354;SDS011;8287;51.644;8.494;2022-12-07T06:43:59;154.35;;;146.90;;
16354;SDS011;8287;51.644;8.494;2022-12-07T06:46:26;115.03;;;109.28;;
16354;SDS011;8287;51.644;8.494;2022-12-07T06:48:52;129.13;;;122.63;;
16354;SDS011;8287;51.644;8.494;2022-12-07T06:51:20;161.18;;;153.38;;
16354;SDS011;8287;51.644;8.494;2022-12-07T06:53:47;121.38;;;115.20;;
16354;SDS011;8287;51.644;8.494;2022-12-07T06:56:14;128.23;;;121.47;;
16354;SDS011;8287;51.644;8.494;2022-12-07T06:58:40;137.48;;;130.80;;
16354;SDS011;8287;51.644;8.494;2022-12-07T07:01:08;131.68;;;124.68;;
16354;SDS011;8287;51.644;8.494;2022-12-07T07:03:36;148.73;;;141.52;;
16354;SDS011;8287;51.644;8.494;2022-12-07T07:06:03;145.27;;;138.20;;
16354;SDS011;8287;51.644;8.494;2022-12-07T07:08:31;126.22;;;120.18;;
16354;SDS011;8287;51.644;8.494;2022-12-07T07:10:58;157.60;;;150.18;;
16354;SDS011;8287;51.644;8.494;2022-12-07T07:13:25;143.95;;;136.63;;
16354;SDS011;8287;51.644;8.494;2022-12-07T07:15:52;142.95;;;136.32;;
16354;SDS011;8287;51.644;8.494;2022-12-07T07:18:19;147.48;;;140.50;;
16354;SDS011;8287;51.644;8.494;2022-12-07T07:20:46;139.77;;;133.15;;
16354;SDS011;8287;51.644;8.494;2022-12-07T07:23:12;147.43;;;140.38;;
16354;SDS011;8287;51.644;8.494;2022-12-07T07:25:40;147.48;;;140.63;;
16354;SDS011;8287;51.644;8.494;2022-12-07T07:28:07;138.18;;;131.38;;
16354;SDS011;8287;51.644;8.494;2022-12-07T07:30:34;154.38;;;147.27;;
16354;SDS011;8287;51.644;8.494;2022-12-07T07:33:01;151.30;;;143.95;;
16354;SDS011;8287;51.644;8.494;2022-12-07T07:35:29;160.68;;;152.55;;
16354;SDS011;8287;51.644;8.494;2022-12-07T07:37:56;146.25;;;138.50;;
16354;SDS011;8287;51.644;8.494;2022-12-07T07:40:24;134.60;;;128.10;;
16354;SDS011;8287;51.644;8.494;2022-12-07T07:42:52;149.05;;;142.15;;
16354;SDS011;8287;51.644;8.494;2022-12-07T07:45:20;147.68;;;140.75;;
16354;SDS011;8287;51.644;8.494;2022-12-07T07:47:47;147.45;;;139.73;;
16354;SDS011;8287;51.644;8.494;2022-12-07T07:50:14;134.30;;;127.95;;
16354;SDS011;8287;51.644;8.494;2022-12-07T07:52:42;125.00;;;118.57;;
16354;SDS011;8287;51.644;8.494;2022-12-07T07:55:09;141.55;;;134.80;;
16354;SDS011;8287;51.644;8.494;2022-12-07T07:57:36;147.85;;;140.40;;
16354;SDS011;8287;51.644;8.494;2022-12-07T08:00:05;127.88;;;121.93;;
16354;SDS011;8287;51.644;8.494;2022-12-07T08:02:34;131.93;;;125.05;;
16354;SDS011;8287;51.644;8.494;2022-12-07T08:05:00;159.07;;;151.20;;
16354;SDS011;8287;51.644;8.494;2022-12-07T08:07:28;154.00;;;146.30;;
16354;SDS011;8287;51.644;8.494;2022-12-07T08:09:56;144.52;;;137.10;;
16354;SDS011;8287;51.644;8.494;2022-12-07T08:12:23;151.65;;;144.30;;
16354;SDS011;8287;51.644;8.494;2022-12-07T08:14:49;119.20;;;113.30;;
16354;SDS011;8287;51.644;8.494;2022-12-07T08:17:17;169.13;;;161.13;;
16354;SDS011;8287;51.644;8.494;2022-12-07T08:19:44;114.97;;;109.38;;
16354;SDS011;8287;51.644;8.494;2022-12-07T08:22:11;146.27;;;138.88;;
16354;SDS011;8287;51.644;8.494;2022-12-07T08:24:37;144.18;;;136.50;;
16354;SDS011;8287;51.644;8.494;2022-12-07T08:27:04;140.50;;;133.98;;
16354;SDS011;8287;51.644;8.494;2022-12-07T08:29:30;148.32;;;141.57;;
16354;SDS011;8287;51.644;8.494;2022-12-07T08:31:57;133.48;;;126.70;;
16354;SDS011;8287;51.644;8.494;2022-12-07T08:34:27;190.93;;;182.52;;
16354;SDS011;8287;51.644;8.494;2022-12-07T08:36:53;132.00;;;125.43;;
16354;SDS011;8287;51.644;8.494;2022-12-07T08:39:20;129.13;;;122.85;;
16354;SDS011;8287;51.644;8.494;2022-12-07T08:41:47;126.60;;;120.75;;
16354;SDS011;8287;51.644;8.494;2022-12-07T08:44:13;126.43;;;120.25;;
16354;SDS011;8287;51.644;8.494;2022-12-07T08:46:40;119.85;;;113.97;;
16354;SDS011;8287;51.644;8.494;2022-12-07T08:49:12;168.68;;;160.10;;
16354;SDS011;8287;51.644;8.494;2022-12-07T08:51:43;146.80;;;139.85;;
16354;SDS011;8287;51.644;8.494;2022-12-07T08:54:10;128.15;;;121.53;;
16354;SDS011;8287;51.644;8.494;2022-12-07T08:56:40;156.02;;;147.38;;
16354;SDS011;8287;51.644;8.494;2022-12-07T08:59:07;137.10;;;130.30;;
16354;SDS011;8287;51.644;8.494;2022-12-07T09:01:34;151.27;;;143.80;;
16354;SDS011;8287;51.644;8.494;2022-12-07T09:04:01;139.43;;;132.77;;
16354;SDS011;8287;51.644;8.494;2022-12-07T09:06:28;134.13;;;127.70;;
16354;SDS011;8287;51.644;8.494;2022-12-07T09:08:58;132.98;;;126.63;;
16354;SDS011;8287;51.644;8.494;2022-12-07T09:11:26;138.07;;;131.75;;
16354;SDS011;8287;51.644;8.494;2022-12-07T09:13:53;138.68;;;132.25;;
16354;SDS011;8287;51.644;8.494;2022-12-07T09:16:20;135.23;;;128.95;;
16354;SDS011;8287;51.644;8.494;2022-12-07T09:18:46;133.95;;;127.53;;
16354;SDS011;8287;51.644;8.494;2022-12-07T09:21:13;116.28;;;110.18;;
16354;SDS011;8287;51.644;8.494;2022-12-07T09:23:40;175.38;;;167.52;;
16354;SDS011;8287;51.644;8.494;2022-12-07T09:26:09;130.90;;;124.93;;
16354;SDS011;8287;51.644;8.494;2022-12-07T09:28:35;120.20;;;113.70;;
16354;SDS011;8287;51.644;8.494;2022-12-07T09:31:04;163.73;;;155.90;;
16354;SDS011;8287;51.644;8.494;2022-12-07T09:33:31;128.55;;;122.53;;
16354;SDS011;8287;51.644;8.494;2022-12-07T09:35:57;147.98;;;141.13;;
16354;SDS011;8287;51.644;8.494;2022-12-07T09:38:24;144.93;;;138.43;;
16354;SDS011;8287;51.644;8.494;2022-12-07T09:40:51;133.48;;;126.85;;
16354;SDS011;8287;51.644;8.494;2022-12-07T09:43:22;126.90;;;120.68;;
16354;SDS011;8287;51.644;8.494;2022-12-07T09:45:51;130.65;;;124.05;;
16354;SDS011;8287;51.644;8.494;2022-12-07T09:48:20;101.28;;;96.57;;
16354;SDS011;8287;51.644;8.494;2022-12-07T09:50:49;142.75;;;135.93;;
16354;SDS011;8287;51.644;8.494;2022-12-07T09:53:19;148.85;;;142.10;;
16354;SDS011;8287;51.644;8.494;2022-12-07T09:55:49;148.15;;;141.50;;
16354;SDS011;8287;51.644;8.494;2022-12-07T09:58:17;143.50;;;137.15;;
16354;SDS011;8287;51.644;8.494;2022-12-07T10:00:48;116.55;;;111.05;;
16354;SDS011;8287;51.644;8.494;2022-12-07T10:03:15;127.25;;;121.63;;
16354;SDS011;8287;51.644;8.494;2022-12-07T10:05:42;120.22;;;114.72;;
16354;SDS011;8287;51.644;8.494;2022-12-07T10:08:13;138.18;;;131.23;;
16354;SDS011;8287;51.644;8.494;2022-12-07T10:10:42;104.72;;;99.43;;
16354;SDS011;8287;51.644;8.494;2022-12-07T10:13:10;141.93;;;135.30;;
16354;SDS011;8287;51.644;8.494;2022-12-07T10:15:40;126.13;;;120.07;;
16354;SDS011;8287;51.644;8.494;2022-12-07T10:18:20;128.00;;;122.13;;
16354;SDS011;8287;51.644;8.494;2022-12-07T10:24:02;195.00;;;186.63;;
16354;SDS011;8287;51.644;8.494;2022-12-07T10:26:31;115.25;;;110.10;;
16354;SDS011;8287;51.644;8.494;2022-12-07T10:29:00;134.65;;;128.65;;
16354;SDS011;8287;51.644;8.494;2022-12-07T10:31:38;127.07;;;121.20;;
16354;SDS011;8287;51.644;8.494;2022-12-07T10:34:12;136.43;;;129.73;;
16354;SDS011;8287;51.644;8.494;2022-12-07T10:36:47;174.23;;;166.55;;
16354;SDS011;8287;51.644;8.494;2022-12-07T10:39:14;140.18;;;133.52;;
16354;SDS011;8287;51.644;8.494;2022-12-07T10:41:52;103.43;;;98.18;;
16354;SDS011;8287;51.644;8.494;2022-12-07T10:44:20;124.70;;;118.90;;
16354;SDS011;8287;51.644;8.494;2022-12-07T10:47:01;118.50;;;113.32;;
16354;SDS011;8287;51.644;8.494;2022-12-07T10:53:04;130.55;;;124.70;;
16354;SDS011;8287;51.644;8.494;2022-12-07T10:55:52;164.90;;;157.73;;
16354;SDS011;8287;51.644;8.494;2022-12-07T10:58:37;129.68;;;123.47;;
16354;SDS011;8287;51.644;8.494;2022-12-07T11:01:18;126.55;;;120.63;;
16354;SDS011;8287;51.644;8.494;2022-12-07T11:03:55;98.57;;;93.60;;
16354;SDS011;8287;51.644;8.494;2022-12-07T11:06:42;108.78;;;103.78;;
16354;SDS011;8287;51.644;8.494;2022-12-07T11:09:31;151.00;;;143.02;;
16354;SDS011;8287;51.644;8.494;2022-12-07T11:12:14;118.68;;;113.32;;
16354;SDS011;8287;51.644;8.494;2022-12-07T11:14:47;123.75;;;118.20;;
16354;SDS011;8287;51.644;8.494;2022-12-07T11:17:22;124.10;;;117.95;;
16354;SDS011;8287;51.644;8.494;2022-12-07T11:20:03;123.30;;;117.70;;
16354;SDS011;8287;51.644;8.494;2022-12-07T11:22:41;167.65;;;160.63;;
16354;SDS011;8287;51.644;8.494;2022-12-07T11:25:18;111.25;;;105.93;;
16354;SDS011;8287;51.644;8.494;2022-12-07T11:28:00;146.15;;;139.52;;
16354;SDS011;8287;51.644;8.494;2022-12-07T11:30:37;116.03;;;110.85;;
16354;SDS011;8287;51.644;8.494;2022-12-07T11:33:11;106.75;;;101.97;;
16354;SDS011;8287;51.644;8.494;2022-12-07T11:35:46;129.27;;;123.13;;
16354;SDS011;8287;51.644;8.494;2022-12-07T11:38:26;149.80;;;143.43;;
16354;SDS011;8287;51.644;8.494;2022-12-07T11:41:03;90.13;;;86.07;;
16354;SDS011;8287;51.644;8.494;2022-12-07T11:43:41;92.15;;;87.80;;
16354;SDS011;8287;51.644;8.494;2022-12-07T11:46:24;135.57;;;128.88;;
16354;SDS011;8287;51.644;8.494;2022-12-07T11:48:55;126.50;;;120.97;;
16354;SDS011;8287;51.644;8.494;2022-12-07T11:51:28;84.53;;;80.78;;
16354;SDS011;8287;51.644;8.494;2022-12-07T11:54:01;89.22;;;84.63;;
16354;SDS011;8287;51.644;8.494;2022-12-07T11:56:31;98.47;;;93.75;;
16354;SDS011;8287;51.644;8.494;2022-12-07T11:59:04;62.50;;;59.08;;
16354;SDS011;8287;51.644;8.494;2022-12-07T12:01:41;62.15;;;59.15;;
16354;SDS011;8287;51.644;8.494;2022-12-07T12:04:18;107.93;;;102.88;;
16354;SDS011;8287;51.644;8.494;2022-12-07T12:06:52;71.55;;;68.28;;
16354;SDS011;8287;51.644;8.494;2022-12-07T12:09:22;64.40;;;61.17;;
16354;SDS011;8287;51.644;8.494;2022-12-07T12:12:02;78.55;;;74.93;;
16354;SDS011;8287;51.644;8.494;2022-12-07T12:14:44;89.00;;;84.68;;
16354;SDS011;8287;51.644;8.494;2022-12-07T12:17:30;64.28;;;60.63;;
16354;SDS011;8287;51.644;8.494;2022-12-07T12:20:19;63.63;;;60.53;;
16354;SDS011;8287;51.644;8.494;2022-12-07T12:22:53;74.30;;;71.00;;
16354;SDS011;8287;51.644;8.494;2022-12-07T12:25:27;66.50;;;62.20;;
16354;SDS011;8287;51.644;8.494;2022-12-07T12:27:57;62.10;;;58.97;;
16354;SDS011;8287;51.644;8.494;2022-12-07T12:30:35;54.13;;;51.55;;
16354;SDS011;8287;51.644;8.494;2022-12-07T12:33:06;62.72;;;59.78;;
16354;SDS011;8287;51.644;8.494;2022-12-07T12:35:41;84.63;;;80.25;;
16354;SDS011;8287;51.644;8.494;2022-12-07T12:38:25;75.43;;;72.00;;
16354;SDS011;8287;51.644;8.494;2022-12-07T12:40:55;68.47;;;64.97;;
16354;SDS011;8287;51.644;8.494;2022-12-07T12:43:42;89.90;;;84.97;;
16354;SDS011;8287;51.644;8.494;2022-12-07T12:49:30;93.95;;;89.55;;
16354;SDS011;8287;51.644;8.494;2022-12-07T12:52:00;66.57;;;63.47;;
16354;SDS011;8287;51.644;8.494;2022-12-07T12:54:57;62.67;;;59.58;;
16354;SDS011;8287;51.644;8.494;2022-12-07T12:57:27;62.58;;;59.63;;
16354;SDS011;8287;51.644;8.494;2022-12-07T12:59:56;44.58;;;42.45;;
16354;SDS011;8287;51.644;8.494;2022-12-07T13:02:25;52.60;;;49.45;;
16354;SDS011;8287;51.644;8.494;2022-12-07T13:04:55;68.20;;;64.47;;
16354;SDS011;8287;51.644;8.494;2022-12-07T13:10:38;61.30;;;57.83;;
16354;SDS011;8287;51.644;8.494;2022-12-07T13:13:30;56.58;;;53.33;;
16354;SDS011;8287;51.644;8.494;2022-12-07T13:22:42;55.80;;;53.28;;
16354;SDS011;8287;51.644;8.494;2022-12-07T13:25:18;42.25;;;39.95;;
16354;SDS011;8287;51.644;8.494;2022-12-07T13:27:48;73.53;;;68.95;;
16354;SDS011;8287;51.644;8.494;2022-12-07T13:30:23;58.20;;;55.10;;
16354;SDS011;8287;51.644;8.494;2022-12-07T13:32:54;43.38;;;41.25;;
16354;SDS011;8287;51.644;8.494;2022-12-07T13:35:28;57.80;;;55.17;;
16354;SDS011;8287;51.644;8.494;2022-12-07T13:37:59;48.25;;;45.58;;
16354;SDS011;8287;51.644;8.494;2022-12-07T13:40:28;94.68;;;89.93;;
16354;SDS011;8287;51.644;8.494;2022-12-07T13:42:59;56.75;;;54.17;;
16354;SDS011;8287;51.644;8.494;2022-12-07T13:45:29;51.70;;;48.78;;
16354;SDS011;8287;51.644;8.494;2022-12-07T13:48:18;58.05;;;55.03;;
16354;SDS011;8287;51.644;8.494;2022-12-07T13:50:53;42.53;;;40.08;;
16354;SDS011;8287;51.644;8.494;2022-12-07T13:53:21;58.50;;;55.80;;
16354;SDS011;8287;51.644;8.494;2022-12-07T13:55:48;58.00;;;55.05;;
16354;SDS011;8287;51.644;8.494;2022-12-07T13:58:15;59.22;;;56.35;;
16354;SDS011;8287;51.644;8.494;2022-12-07T14:00:44;41.42;;;39.00;;
16354;SDS011;8287;51.644;8.494;2022-12-07T14:06:04;42.70;;;40.15;;
16354;SDS011;8287;51.644;8.494;2022-12-07T14:08:34;52.03;;;49.65;;
16354;SDS011;8287;51.644;8.494;2022-12-07T14:11:00;58.33;;;55.13;;
16354;SDS011;8287;51.644;8.494;2022-12-07T14:13:28;61.83;;;58.42;;
16354;SDS011;8287;51.644;8.494;2022-12-07T14:16:00;47.65;;;44.45;;
16354;SDS011;8287;51.644;8.494;2022-12-07T14:18:29;54.88;;;52.15;;
16354;SDS011;8287;51.644;8.494;2022-12-07T14:21:03;37.05;;;35.33;;
16354;SDS011;8287;51.644;8.494;2022-12-07T14:23:31;45.83;;;43.47;;
16354;SDS011;8287;51.644;8.494;2022-12-07T14:26:05;42.20;;;39.60;;
16354;SDS011;8287;51.644;8.494;2022-12-07T14:28:35;42.28;;;39.45;;
16354;SDS011;8287;51.644;8.494;2022-12-07T14:31:07;47.22;;;44.70;;
16354;SDS011;8287;51.644;8.494;2022-12-07T14:33:38;45.53;;;43.15;;
16354;SDS011;8287;51.644;8.494;2022-12-07T14:36:05;48.38;;;45.20;;
16354;SDS011;8287;51.644;8.494;2022-12-07T14:38:32;39.17;;;36.95;;
16354;SDS011;8287;51.644;8.494;2022-12-07T14:40:59;48.25;;;45.58;;
16354;SDS011;8287;51.644;8.494;2022-12-07T14:43:39;54.50;;;51.47;;
16354;SDS011;8287;51.644;8.494;2022-12-07T14:46:08;59.55;;;56.47;;
16354;SDS011;8287;51.644;8.494;2022-12-07T14:48:35;46.58;;;43.55;;
16354;SDS011;8287;51.644;8.494;2022-12-07T14:51:02;64.90;;;61.47;;
16354;SDS011;8287;51.644;8.494;2022-12-07T14:53:30;52.75;;;50.17;;
16354;SDS011;8287;51.644;8.494;2022-12-07T14:56:00;55.60;;;51.83;;
16354;SDS011;8287;51.644;8.494;2022-12-07T14:58:27;42.22;;;40.08;;
16354;SDS011;8287;51.644;8.494;2022-12-07T15:00:54;39.90;;;37.53;;
16354;SDS011;8287;51.644;8.494;2022-12-07T15:03:22;38.35;;;36.20;;